CheckWX is a tool to help pilots better visualize weather data.  It is not intended as a substitute for an official pre-flight weather briefing.

01:01:14 UTC

KSKF METAR
Kelly Field Airport
San Antonio, Texas, USA
Current

1 hour ago

KSKF 202356Z AUTO 15010KT 10SM CLR 27/13 A2994 RMK AO2 SLP135 T02660130 10279 20247 55022 $
Observed
Apr-20 @ 23:56 UTC
Wind
  • 150° at 10 KTS
Visibility
10 SM
Flight Rules
VFR
Cloud Levels
  • Clear skies
Temperature
27°C / 81°F
Dewpoint
13°C / 55°F
Heat Index
27°C / 81°F
Humidity
42%
Altimeter
29.94" Hg
Pressure
1013.92 hPa
Previous

2 hours ago

KSKF 202256Z AUTO 17008KT 10SM CLR 28/11 A2994 RMK AO2 SLP135 T02760112 $
Observed
Apr-20 @ 22:56 UTC
Wind
  • 170° at 8 KTS
Visibility
10 SM
Flight Rules
VFR
Cloud Levels
  • Clear skies
Temperature
28°C / 82°F
Dewpoint
11°C / 52°F
Humidity
35%
Altimeter
29.94" Hg
Pressure
1013.92 hPa
Previous

3 hours ago

KSKF 202156Z AUTO 13005KT 10SM CLR 28/12 A2997 RMK AO2 SLP145 T02780122 $
Observed
Apr-20 @ 21:56 UTC
Wind
  • 130° at 5 KTS
Visibility
10 SM
Flight Rules
VFR
Cloud Levels
  • Clear skies
Temperature
28°C / 82°F
Dewpoint
12°C / 54°F
Humidity
37%
Altimeter
29.97" Hg
Pressure
1014.92 hPa